sensor_id;sensor_type;location;lat;lon;timestamp;pressure;altitude;pressure_sealevel;temperature;humidity
41218;BME280;26950;50.960;7.138;2023-08-07T00:01:15;100221.25;;;18.10;66.57
41218;BME280;26950;50.960;7.138;2023-08-07T00:03:41;100224.84;;;18.91;64.54
41218;BME280;26950;50.960;7.138;2023-08-07T00:06:07;100224.75;;;18.17;66.66
41218;BME280;26950;50.960;7.138;2023-08-07T00:08:34;100227.22;;;18.33;65.77
41218;BME280;26950;50.960;7.138;2023-08-07T00:11:06;100219.78;;;17.72;67.14
41218;BME280;26950;50.960;7.138;2023-08-07T00:13:32;100216.81;;;18.12;66.91
41218;BME280;26950;50.960;7.138;2023-08-07T00:15:59;100214.13;;;18.14;66.17
41218;BME280;26950;50.960;7.138;2023-08-07T00:18:25;100226.00;;;17.74;68.16
41218;BME280;26950;50.960;7.138;2023-08-07T00:20:51;100224.56;;;17.09;69.66
41218;BME280;26950;50.960;7.138;2023-08-07T00:23:17;100226.50;;;18.16;66.92
41218;BME280;26950;50.960;7.138;2023-08-07T00:25:44;100229.81;;;18.40;65.86
41218;BME280;26950;50.960;7.138;2023-08-07T00:28:11;100237.09;;;18.21;66.36
41218;BME280;26950;50.960;7.138;2023-08-07T00:30:38;100239.31;;;17.59;68.28
41218;BME280;26950;50.960;7.138;2023-08-07T00:33:04;100236.75;;;17.45;69.58
41218;BME280;26950;50.960;7.138;2023-08-07T00:35:30;100242.81;;;17.64;68.17
41218;BME280;26950;50.960;7.138;2023-08-07T00:37:57;100244.94;;;17.03;71.18
41218;BME280;26950;50.960;7.138;2023-08-07T00:40:23;100235.16;;;17.15;70.57
41218;BME280;26950;50.960;7.138;2023-08-07T00:42:49;100249.88;;;17.68;69.29
41218;BME280;26950;50.960;7.138;2023-08-07T00:45:17;100236.63;;;17.64;69.53
41218;BME280;26950;50.960;7.138;2023-08-07T00:47:43;100247.53;;;18.39;66.53
41218;BME280;26950;50.960;7.138;2023-08-07T00:50:10;100244.59;;;17.64;68.59
41218;BME280;26950;50.960;7.138;2023-08-07T00:52:36;100247.25;;;18.65;65.59
41218;BME280;26950;50.960;7.138;2023-08-07T00:55:03;100251.19;;;18.27;65.74
41218;BME280;26950;50.960;7.138;2023-08-07T00:57:30;100248.16;;;18.67;65.25
41218;BME280;26950;50.960;7.138;2023-08-07T00:59:56;100252.19;;;19.02;64.57
41218;BME280;26950;50.960;7.138;2023-08-07T01:02:24;100255.00;;;18.90;63.94
41218;BME280;26950;50.960;7.138;2023-08-07T01:04:51;100260.06;;;18.26;66.79
41218;BME280;26950;50.960;7.138;2023-08-07T01:07:17;100252.03;;;18.32;66.39
41218;BME280;26950;50.960;7.138;2023-08-07T01:09:44;100254.28;;;17.75;68.10
41218;BME280;26950;50.960;7.138;2023-08-07T01:12:13;100260.25;;;18.05;67.89
41218;BME280;26950;50.960;7.138;2023-08-07T01:14:43;100259.00;;;18.44;66.81
41218;BME280;26950;50.960;7.138;2023-08-07T01:17:14;100263.09;;;17.77;68.54
41218;BME280;26950;50.960;7.138;2023-08-07T01:19:42;100262.19;;;17.82;68.34
41218;BME280;26950;50.960;7.138;2023-08-07T01:22:10;100256.84;;;17.88;67.88
41218;BME280;26950;50.960;7.138;2023-08-07T01:24:37;100262.97;;;17.96;67.23
41218;BME280;26950;50.960;7.138;2023-08-07T01:27:07;100264.63;;;18.09;67.05
41218;BME280;26950;50.960;7.138;2023-08-07T01:29:37;100268.31;;;17.91;67.50
41218;BME280;26950;50.960;7.138;2023-08-07T01:32:05;100270.53;;;17.11;70.37
41218;BME280;26950;50.960;7.138;2023-08-07T01:34:34;100270.56;;;17.07;71.15
41218;BME280;26950;50.960;7.138;2023-08-07T01:37:00;100269.47;;;17.47;69.45
41218;BME280;26950;50.960;7.138;2023-08-07T01:39:30;100269.53;;;17.41;69.56
41218;BME280;26950;50.960;7.138;2023-08-07T01:41:57;100272.34;;;18.35;67.65
41218;BME280;26950;50.960;7.138;2023-08-07T01:44:25;100261.81;;;16.83;71.91
41218;BME280;26950;50.960;7.138;2023-08-07T01:46:51;100266.69;;;17.67;69.25
41218;BME280;26950;50.960;7.138;2023-08-07T01:49:18;100267.84;;;17.19;70.60
41218;BME280;26950;50.960;7.138;2023-08-07T01:51:44;100268.63;;;17.42;69.47
41218;BME280;26950;50.960;7.138;2023-08-07T01:54:10;100272.91;;;17.66;68.62
41218;BME280;26950;50.960;7.138;2023-08-07T01:56:38;100279.72;;;18.05;67.56
41218;BME280;26950;50.960;7.138;2023-08-07T01:59:04;100281.63;;;17.84;68.26
41218;BME280;26950;50.960;7.138;2023-08-07T02:01:31;100279.25;;;17.33;69.24
41218;BME280;26950;50.960;7.138;2023-08-07T02:03:57;100280.03;;;17.53;68.78
41218;BME280;26950;50.960;7.138;2023-08-07T02:06:23;100277.59;;;17.12;70.32
41218;BME280;26950;50.960;7.138;2023-08-07T02:08:49;100283.59;;;17.46;69.20
41218;BME280;26950;50.960;7.138;2023-08-07T02:11:16;100288.75;;;17.82;68.71
41218;BME280;26950;50.960;7.138;2023-08-07T02:13:43;100298.50;;;17.70;69.13
41218;BME280;26950;50.960;7.138;2023-08-07T02:16:10;100288.13;;;17.35;68.76
41218;BME280;26950;50.960;7.138;2023-08-07T02:18:36;100299.53;;;17.49;68.73
41218;BME280;26950;50.960;7.138;2023-08-07T02:21:02;100297.72;;;17.51;69.23
41218;BME280;26950;50.960;7.138;2023-08-07T02:23:29;100295.00;;;17.71;68.84
41218;BME280;26950;50.960;7.138;2023-08-07T02:25:55;100298.59;;;17.58;68.69
41218;BME280;26950;50.960;7.138;2023-08-07T02:28:21;100303.97;;;17.43;68.97
41218;BME280;26950;50.960;7.138;2023-08-07T02:30:49;100302.28;;;17.26;70.13
41218;BME280;26950;50.960;7.138;2023-08-07T02:33:16;100297.66;;;17.73;68.69
41218;BME280;26950;50.960;7.138;2023-08-07T02:35:42;100306.16;;;18.16;67.06
41218;BME280;26950;50.960;7.138;2023-08-07T02:38:08;100292.78;;;18.28;66.58
41218;BME280;26950;50.960;7.138;2023-08-07T02:40:35;100307.66;;;18.48;66.18
41218;BME280;26950;50.960;7.138;2023-08-07T02:43:01;100305.53;;;17.87;68.07
41218;BME280;26950;50.960;7.138;2023-08-07T02:45:27;100316.28;;;17.53;69.24
41218;BME280;26950;50.960;7.138;2023-08-07T02:47:55;100318.16;;;17.36;68.85
41218;BME280;26950;50.960;7.138;2023-08-07T02:50:21;100309.13;;;17.66;68.65
41218;BME280;26950;50.960;7.138;2023-08-07T02:52:49;100309.56;;;16.42;72.82
41218;BME280;26950;50.960;7.138;2023-08-07T02:55:16;100307.69;;;17.02;72.11
41218;BME280;26950;50.960;7.138;2023-08-07T02:57:42;100297.16;;;16.61;71.79
41218;BME280;26950;50.960;7.138;2023-08-07T03:00:08;100295.25;;;17.15;70.25
41218;BME280;26950;50.960;7.138;2023-08-07T03:02:36;100294.34;;;17.23;70.69
41218;BME280;26950;50.960;7.138;2023-08-07T03:05:04;100299.69;;;17.08;70.34
41218;BME280;26950;50.960;7.138;2023-08-07T03:07:30;100291.38;;;17.83;67.59
41218;BME280;26950;50.960;7.138;2023-08-07T03:09:57;100290.66;;;17.55;68.44
41218;BME280;26950;50.960;7.138;2023-08-07T03:12:23;100298.25;;;18.13;67.32
41218;BME280;26950;50.960;7.138;2023-08-07T03:14:49;100299.13;;;18.12;66.20
41218;BME280;26950;50.960;7.138;2023-08-07T03:17:16;100296.72;;;17.78;67.16
41218;BME280;26950;50.960;7.138;2023-08-07T03:19:43;100298.13;;;18.25;66.17
41218;BME280;26950;50.960;7.138;2023-08-07T03:22:10;100289.47;;;18.05;66.15
41218;BME280;26950;50.960;7.138;2023-08-07T03:24:37;100291.00;;;18.32;66.19
41218;BME280;26950;50.960;7.138;2023-08-07T03:27:03;100294.44;;;18.43;65.37
41218;BME280;26950;50.960;7.138;2023-08-07T03:29:30;100290.59;;;17.67;67.55
41218;BME280;26950;50.960;7.138;2023-08-07T03:31:56;100293.88;;;18.03;66.83
41218;BME280;26950;50.960;7.138;2023-08-07T03:34:22;100285.81;;;18.18;66.26
41218;BME280;26950;50.960;7.138;2023-08-07T03:36:49;100297.91;;;17.19;69.61
41218;BME280;26950;50.960;7.138;2023-08-07T03:39:16;100302.16;;;17.51;68.23
41218;BME280;26950;50.960;7.138;2023-08-07T03:41:43;100298.25;;;18.10;66.59
41218;BME280;26950;50.960;7.138;2023-08-07T03:44:09;100291.22;;;18.06;66.14
41218;BME280;26950;50.960;7.138;2023-08-07T03:46:36;100289.50;;;18.00;65.75
41218;BME280;26950;50.960;7.138;2023-08-07T03:49:02;100298.38;;;17.98;65.64
41218;BME280;26950;50.960;7.138;2023-08-07T03:51:28;100303.66;;;17.99;66.12
41218;BME280;26950;50.960;7.138;2023-08-07T03:53:57;100300.97;;;18.04;65.96
41218;BME280;26950;50.960;7.138;2023-08-07T03:56:24;100310.53;;;18.25;65.63
41218;BME280;26950;50.960;7.138;2023-08-07T03:58:51;100306.03;;;18.33;64.67
41218;BME280;26950;50.960;7.138;2023-08-07T04:01:17;100303.97;;;18.64;63.59
41218;BME280;26950;50.960;7.138;2023-08-07T04:03:43;100305.44;;;17.96;65.90
41218;BME280;26950;50.960;7.138;2023-08-07T04:06:11;100306.91;;;18.33;64.95
41218;BME280;26950;50.960;7.138;2023-08-07T04:08:40;100310.06;;;17.66;66.32
41218;BME280;26950;50.960;7.138;2023-08-07T04:11:07;100308.81;;;18.19;64.49
41218;BME280;26950;50.960;7.138;2023-08-07T04:13:35;100302.59;;;18.20;65.47
41218;BME280;26950;50.960;7.138;2023-08-07T04:16:01;100305.84;;;17.19;68.52
41218;BME280;26950;50.960;7.138;2023-08-07T04:18:29;100313.53;;;17.77;66.90
41218;BME280;26950;50.960;7.138;2023-08-07T04:20:56;100319.81;;;17.58;67.60
41218;BME280;26950;50.960;7.138;2023-08-07T04:23:22;100312.63;;;17.78;67.38
41218;BME280;26950;50.960;7.138;2023-08-07T04:25:49;100321.28;;;18.10;65.67
41218;BME280;26950;50.960;7.138;2023-08-07T04:28:16;100330.31;;;17.83;67.27
41218;BME280;26950;50.960;7.138;2023-08-07T04:30:44;100326.84;;;17.74;66.92
41218;BME280;26950;50.960;7.138;2023-08-07T04:33:10;100330.44;;;17.52;67.94
41218;BME280;26950;50.960;7.138;2023-08-07T04:35:37;100329.41;;;17.87;67.03
41218;BME280;26950;50.960;7.138;2023-08-07T04:38:04;100324.06;;;17.94;66.50
41218;BME280;26950;50.960;7.138;2023-08-07T04:40:30;100325.09;;;17.67;67.53
41218;BME280;26950;50.960;7.138;2023-08-07T04:42:56;100331.38;;;17.49;68.33
41218;BME280;26950;50.960;7.138;2023-08-07T04:45:23;100337.91;;;18.36;65.52
41218;BME280;26950;50.960;7.138;2023-08-07T04:47:50;100335.50;;;18.02;66.15
41218;BME280;26950;50.960;7.138;2023-08-07T04:50:17;100337.38;;;17.87;66.43
41218;BME280;26950;50.960;7.138;2023-08-07T04:52:43;100336.44;;;17.94;66.02
41218;BME280;26950;50.960;7.138;2023-08-07T04:55:10;100335.53;;;17.96;66.40
41218;BME280;26950;50.960;7.138;2023-08-07T04:57:36;100344.59;;;17.60;67.80
41218;BME280;26950;50.960;7.138;2023-08-07T05:00:03;100340.59;;;18.30;65.84
41218;BME280;26950;50.960;7.138;2023-08-07T05:02:29;100344.88;;;18.49;64.52
41218;BME280;26950;50.960;7.138;2023-08-07T05:04:57;100340.84;;;17.99;65.56
41218;BME280;26950;50.960;7.138;2023-08-07T05:07:23;100337.50;;;17.53;67.91
41218;BME280;26950;50.960;7.138;2023-08-07T05:09:50;100334.69;;;17.93;66.51
41218;BME280;26950;50.960;7.138;2023-08-07T05:12:16;100339.22;;;17.72;67.56
41218;BME280;26950;50.960;7.138;2023-08-07T05:14:42;100340.41;;;16.92;69.47
41218;BME280;26950;50.960;7.138;2023-08-07T05:17:09;100340.94;;;17.83;66.96
41218;BME280;26950;50.960;7.138;2023-08-07T05:19:35;100334.88;;;17.47;67.68
41218;BME280;26950;50.960;7.138;2023-08-07T05:22:03;100337.75;;;16.89;70.79
41218;BME280;26950;50.960;7.138;2023-08-07T05:24:29;100338.34;;;17.72;67.43
41218;BME280;26950;50.960;7.138;2023-08-07T05:27:00;100349.09;;;17.43;68.14
41218;BME280;26950;50.960;7.138;2023-08-07T05:29:26;100343.66;;;17.73;67.12
41218;BME280;26950;50.960;7.138;2023-08-07T05:31:52;100355.28;;;17.39;68.40
41218;BME280;26950;50.960;7.138;2023-08-07T05:34:19;100353.38;;;17.74;66.84
41218;BME280;26950;50.960;7.138;2023-08-07T05:36:45;100348.94;;;17.79;66.70
41218;BME280;26950;50.960;7.138;2023-08-07T05:39:13;100352.53;;;17.57;66.86
41218;BME280;26950;50.960;7.138;2023-08-07T05:41:39;100356.91;;;17.79;66.60
41218;BME280;26950;50.960;7.138;2023-08-07T05:44:06;100355.75;;;18.16;65.30
41218;BME280;26950;50.960;7.138;2023-08-07T05:46:32;100363.00;;;17.89;65.56
41218;BME280;26950;50.960;7.138;2023-08-07T05:48:58;100358.56;;;17.91;65.58
41218;BME280;26950;50.960;7.138;2023-08-07T05:51:25;100359.00;;;18.54;63.17
41218;BME280;26950;50.960;7.138;2023-08-07T05:53:51;100359.56;;;17.67;66.12
41218;BME280;26950;50.960;7.138;2023-08-07T05:56:18;100361.00;;;18.22;65.37
41218;BME280;26950;50.960;7.138;2023-08-07T05:58:45;100366.34;;;18.23;64.98
41218;BME280;26950;50.960;7.138;2023-08-07T06:01:12;100367.84;;;18.53;63.95
41218;BME280;26950;50.960;7.138;2023-08-07T06:03:39;100361.81;;;18.36;64.32
41218;BME280;26950;50.960;7.138;2023-08-07T06:06:05;100356.09;;;17.55;65.88
41218;BME280;26950;50.960;7.138;2023-08-07T06:08:32;100366.72;;;17.50;66.12
41218;BME280;26950;50.960;7.138;2023-08-07T06:10:59;100366.88;;;17.07;68.23
41218;BME280;26950;50.960;7.138;2023-08-07T06:13:29;100363.19;;;17.54;66.88
41218;BME280;26950;50.960;7.138;2023-08-07T06:15:56;100363.16;;;17.57;66.27
41218;BME280;26950;50.960;7.138;2023-08-07T06:18:22;100371.09;;;17.63;66.31
41218;BME280;26950;50.960;7.138;2023-08-07T06:20:48;100368.66;;;17.02;68.44
41218;BME280;26950;50.960;7.138;2023-08-07T06:23:14;100366.72;;;17.50;67.04
41218;BME280;26950;50.960;7.138;2023-08-07T06:25:41;100375.69;;;17.15;68.34
41218;BME280;26950;50.960;7.138;2023-08-07T06:28:07;100373.00;;;17.21;68.33
41218;BME280;26950;50.960;7.138;2023-08-07T06:30:35;100374.84;;;17.01;68.99
41218;BME280;26950;50.960;7.138;2023-08-07T06:33:01;100382.72;;;17.27;67.94
41218;BME280;26950;50.960;7.138;2023-08-07T06:35:28;100385.41;;;17.22;68.63
41218;BME280;26950;50.960;7.138;2023-08-07T06:37:54;100370.25;;;17.55;66.86
41218;BME280;26950;50.960;7.138;2023-08-07T06:40:20;100374.72;;;17.41;67.15
41218;BME280;26950;50.960;7.138;2023-08-07T06:42:47;100390.53;;;17.71;66.05
41218;BME280;26950;50.960;7.138;2023-08-07T06:45:13;100393.41;;;16.98;68.87
41218;BME280;26950;50.960;7.138;2023-08-07T06:47:41;100396.94;;;17.06;69.18
41218;BME280;26950;50.960;7.138;2023-08-07T06:50:07;100399.53;;;17.29;68.33
41218;BME280;26950;50.960;7.138;2023-08-07T06:52:34;100393.44;;;16.92;69.83
41218;BME280;26950;50.960;7.138;2023-08-07T06:55:01;100392.38;;;17.45;67.98
41218;BME280;26950;50.960;7.138;2023-08-07T06:57:27;100411.88;;;17.32;67.60
41218;BME280;26950;50.960;7.138;2023-08-07T06:59:53;100413.66;;;17.33;67.57
41218;BME280;26950;50.960;7.138;2023-08-07T07:02:20;100416.34;;;16.18;71.64
41218;BME280;26950;50.960;7.138;2023-08-07T07:04:47;100411.97;;;16.89;69.46
41218;BME280;26950;50.960;7.138;2023-08-07T07:07:14;100409.28;;;16.23;71.44
41218;BME280;26950;50.960;7.138;2023-08-07T07:09:40;100404.84;;;17.18;68.29
41218;BME280;26950;50.960;7.138;2023-08-07T07:12:06;100408.34;;;17.42;66.88
41218;BME280;26950;50.960;7.138;2023-08-07T07:14:33;100425.25;;;16.72;70.01
41218;BME280;26950;50.960;7.138;2023-08-07T07:17:00;100423.44;;;16.89;69.53
41218;BME280;26950;50.960;7.138;2023-08-07T07:19:26;100420.75;;;17.24;68.28
41218;BME280;26950;50.960;7.138;2023-08-07T07:21:54;100426.13;;;16.92;68.65
41218;BME280;26950;50.960;7.138;2023-08-07T07:24:20;100426.09;;;16.94;68.71
41218;BME280;26950;50.960;7.138;2023-08-07T07:26:46;100435.84;;;16.92;70.07
41218;BME280;26950;50.960;7.138;2023-08-07T07:29:13;100443.78;;;17.10;69.43
41218;BME280;26950;50.960;7.138;2023-08-07T07:31:39;100453.38;;;17.51;68.47
41218;BME280;26950;50.960;7.138;2023-08-07T07:34:05;100451.72;;;16.95;70.50
41218;BME280;26950;50.960;7.138;2023-08-07T07:36:32;100445.50;;;17.26;68.33
41218;BME280;26950;50.960;7.138;2023-08-07T07:38:59;100452.59;;;16.97;69.41
41218;BME280;26950;50.960;7.138;2023-08-07T07:41:26;100463.13;;;16.16;72.61
41218;BME280;26950;50.960;7.138;2023-08-07T07:43:52;100459.69;;;16.89;71.17
41218;BME280;26950;50.960;7.138;2023-08-07T07:46:21;100464.03;;;17.43;68.57
41218;BME280;26950;50.960;7.138;2023-08-07T07:48:48;100474.69;;;16.88;69.97
41218;BME280;26950;50.960;7.138;2023-08-07T07:51:14;100464.97;;;17.06;70.05
41218;BME280;26950;50.960;7.138;2023-08-07T07:53:41;100465.50;;;18.16;65.97
41218;BME280;26950;50.960;7.138;2023-08-07T07:56:08;100467.56;;;17.35;68.32
41218;BME280;26950;50.960;7.138;2023-08-07T07:58:35;100466.66;;;17.45;68.87
41218;BME280;26950;50.960;7.138;2023-08-07T08:01:01;100472.81;;;17.58;67.85
41218;BME280;26950;50.960;7.138;2023-08-07T08:03:28;100466.53;;;17.94;67.09
41218;BME280;26950;50.960;7.138;2023-08-07T08:05:54;100464.06;;;16.61;71.58
41218;BME280;26950;50.960;7.138;2023-08-07T08:08:20;100468.44;;;17.43;68.95
41218;BME280;26950;50.960;7.138;2023-08-07T08:10:47;100486.94;;;17.70;68.61
41218;BME280;26950;50.960;7.138;2023-08-07T08:13:14;100481.63;;;17.64;67.95
41218;BME280;26950;50.960;7.138;2023-08-07T08:15:41;100489.66;;;17.49;68.45
41218;BME280;26950;50.960;7.138;2023-08-07T08:18:07;100489.59;;;17.70;67.83
41218;BME280;26950;50.960;7.138;2023-08-07T08:20:33;100493.03;;;17.97;67.53
41218;BME280;26950;50.960;7.138;2023-08-07T08:23:00;100496.56;;;18.02;66.96
41218;BME280;26950;50.960;7.138;2023-08-07T08:25:26;100503.75;;;17.63;68.59
41218;BME280;26950;50.960;7.138;2023-08-07T08:27:52;100514.09;;;18.38;66.33
41218;BME280;26950;50.960;7.138;2023-08-07T08:30:20;100502.56;;;18.39;65.35
41218;BME280;26950;50.960;7.138;2023-08-07T08:32:47;100517.50;;;18.60;65.09
41218;BME280;26950;50.960;7.138;2023-08-07T08:35:14;100524.44;;;18.85;64.38
41218;BME280;26950;50.960;7.138;2023-08-07T08:37:40;100525.50;;;18.57;65.00
41218;BME280;26950;50.960;7.138;2023-08-07T08:40:07;100536.31;;;18.20;66.63
41218;BME280;26950;50.960;7.138;2023-08-07T08:42:35;100531.94;;;18.13;66.55
41218;BME280;26950;50.960;7.138;2023-08-07T08:45:03;100539.16;;;17.71;68.43
41218;BME280;26950;50.960;7.138;2023-08-07T08:47:31;100542.31;;;18.59;65.65
41218;BME280;26950;50.960;7.138;2023-08-07T08:50:00;100548.47;;;18.66;64.95
41218;BME280;26950;50.960;7.138;2023-08-07T08:52:28;100548.63;;;18.38;65.37
41218;BME280;26950;50.960;7.138;2023-08-07T08:54:55;100549.34;;;18.75;65.11
41218;BME280;26950;50.960;7.138;2023-08-07T08:57:22;100551.63;;;19.21;63.57
41218;BME280;26950;50.960;7.138;2023-08-07T08:59:48;100554.34;;;19.15;63.29
41218;BME280;26950;50.960;7.138;2023-08-07T09:02:15;100558.53;;;19.42;62.90
41218;BME280;26950;50.960;7.138;2023-08-07T09:04:45;100558.91;;;18.98;64.53
41218;BME280;26950;50.960;7.138;2023-08-07T09:07:11;100570.84;;;18.22;66.67
41218;BME280;26950;50.960;7.138;2023-08-07T09:09:39;100565.56;;;18.17;66.67
41218;BME280;26950;50.960;7.138;2023-08-07T09:12:07;100570.94;;;18.05;68.07
41218;BME280;26950;50.960;7.138;2023-08-07T09:14:34;100568.84;;;18.74;65.94
41218;BME280;26950;50.960;7.138;2023-08-07T09:17:04;100570.94;;;17.96;68.19
41218;BME280;26950;50.960;7.138;2023-08-07T09:19:31;100561.81;;;18.67;65.89
41218;BME280;26950;50.960;7.138;2023-08-07T09:21:59;100580.63;;;19.52;63.38
41218;BME280;26950;50.960;7.138;2023-08-07T09:24:25;100580.94;;;19.17;63.61
41218;BME280;26950;50.960;7.138;2023-08-07T09:26:51;100586.75;;;19.67;62.79
41218;BME280;26950;50.960;7.138;2023-08-07T09:29:18;100586.00;;;19.49;63.66
41218;BME280;26950;50.960;7.138;2023-08-07T09:31:46;100592.06;;;19.66;62.93
41218;BME280;26950;50.960;7.138;2023-08-07T09:34:12;100581.03;;;19.04;64.35
41218;BME280;26950;50.960;7.138;2023-08-07T09:36:43;100580.69;;;19.49;62.91
41218;BME280;26950;50.960;7.138;2023-08-07T09:39:10;100602.44;;;19.95;62.12
41218;BME280;26950;50.960;7.138;2023-08-07T09:41:37;100596.59;;;19.52;63.33
41218;BME280;26950;50.960;7.138;2023-08-07T09:44:05;100597.88;;;19.03;64.51
41218;BME280;26950;50.960;7.138;2023-08-07T09:46:32;100593.09;;;17.58;69.13
41218;BME280;26950;50.960;7.138;2023-08-07T09:49:06;100596.41;;;18.47;67.00
41218;BME280;26950;50.960;7.138;2023-08-07T09:51:37;100605.03;;;18.97;65.36
41218;BME280;26950;50.960;7.138;2023-08-07T09:54:06;100607.34;;;19.43;63.84
41218;BME280;26950;50.960;7.138;2023-08-07T09:56:34;100612.06;;;19.02;65.06
41218;BME280;26950;50.960;7.138;2023-08-07T09:59:00;100604.88;;;19.18;65.06
41218;BME280;26950;50.960;7.138;2023-08-07T10:01:27;100610.50;;;18.71;67.62
41218;BME280;26950;50.960;7.138;2023-08-07T10:03:53;100613.13;;;18.77;67.05
41218;BME280;26950;50.960;7.138;2023-08-07T10:06:20;100612.34;;;18.52;67.41
41218;BME280;26950;50.960;7.138;2023-08-07T10:08:47;100616.44;;;19.14;66.71
41218;BME280;26950;50.960;7.138;2023-08-07T10:11:14;100614.03;;;18.73;67.88
41218;BME280;26950;50.960;7.138;2023-08-07T10:13:41;100615.84;;;18.58;67.72
41218;BME280;26950;50.960;7.138;2023-08-07T10:16:08;100613.00;;;18.98;65.94
41218;BME280;26950;50.960;7.138;2023-08-07T10:18:35;100627.94;;;19.18;65.47
41218;BME280;26950;50.960;7.138;2023-08-07T10:21:02;100627.25;;;19.97;63.83
41218;BME280;26950;50.960;7.138;2023-08-07T10:23:28;100620.88;;;19.10;65.69
41218;BME280;26950;50.960;7.138;2023-08-07T10:25:55;100622.84;;;19.96;63.38
41218;BME280;26950;50.960;7.138;2023-08-07T10:28:22;100622.75;;;20.04;63.27
41218;BME280;26950;50.960;7.138;2023-08-07T10:30:51;100630.97;;;19.79;63.63
41218;BME280;26950;50.960;7.138;2023-08-07T10:33:17;100621.41;;;20.44;62.27
41218;BME280;26950;50.960;7.138;2023-08-07T10:35:45;100625.72;;;20.55;61.84
41218;BME280;26950;50.960;7.138;2023-08-07T10:38:12;100630.16;;;20.57;62.64
41218;BME280;26950;50.960;7.138;2023-08-07T10:43:24;100618.94;;;20.95;61.72
41218;BME280;26950;50.960;7.138;2023-08-07T10:45:54;100620.28;;;20.64;63.26
41218;BME280;26950;50.960;7.138;2023-08-07T10:48:20;100617.34;;;20.13;63.27
41218;BME280;26950;50.960;7.138;2023-08-07T10:50:51;100619.09;;;20.11;63.28
41218;BME280;26950;50.960;7.138;2023-08-07T10:53:20;100616.94;;;20.50;62.77
41218;BME280;26950;50.960;7.138;2023-08-07T10:55:47;100622.72;;;20.07;64.86
41218;BME280;26950;50.960;7.138;2023-08-07T10:58:23;100622.53;;;19.27;66.36
41218;BME280;26950;50.960;7.138;2023-08-07T11:00:50;100618.81;;;20.35;64.31
41218;BME280;26950;50.960;7.138;2023-08-07T11:03:21;100618.94;;;20.95;62.25
41218;BME280;26950;50.960;7.138;2023-08-07T11:05:52;100622.06;;;21.23;60.12
41218;BME280;26950;50.960;7.138;2023-08-07T11:08:21;100606.88;;;20.70;60.05
41218;BME280;26950;50.960;7.138;2023-08-07T11:10:47;100616.16;;;20.37;58.27
41218;BME280;26950;50.960;7.138;2023-08-07T11:13:14;100615.53;;;20.15;58.40
41218;BME280;26950;50.960;7.138;2023-08-07T11:15:40;100617.22;;;20.91;54.92
41218;BME280;26950;50.960;7.138;2023-08-07T11:18:07;100618.47;;;21.24;54.69
41218;BME280;26950;50.960;7.138;2023-08-07T11:20:35;100622.69;;;20.84;56.41
41218;BME280;26950;50.960;7.138;2023-08-07T11:23:04;100621.25;;;20.58;55.67
41218;BME280;26950;50.960;7.138;2023-08-07T11:25:30;100621.50;;;20.37;56.25
41218;BME280;26950;50.960;7.138;2023-08-07T11:27:56;100616.28;;;20.95;53.84
41218;BME280;26950;50.960;7.138;2023-08-07T11:30:23;100623.13;;;21.13;53.44
41218;BME280;26950;50.960;7.138;2023-08-07T11:32:49;100627.00;;;20.21;55.88
41218;BME280;26950;50.960;7.138;2023-08-07T11:35:16;100613.66;;;20.23;53.28
41218;BME280;26950;50.960;7.138;2023-08-07T11:37:46;100620.69;;;20.30;53.92
41218;BME280;26950;50.960;7.138;2023-08-07T11:40:13;100609.53;;;20.70;49.84
41218;BME280;26950;50.960;7.138;2023-08-07T11:42:39;100623.41;;;20.23;52.24
41218;BME280;26950;50.960;7.138;2023-08-07T11:45:06;100628.00;;;20.13;50.54
41218;BME280;26950;50.960;7.138;2023-08-07T11:47:33;100622.38;;;20.36;52.48
41218;BME280;26950;50.960;7.138;2023-08-07T11:50:00;100617.72;;;20.55;51.63
41218;BME280;26950;50.960;7.138;2023-08-07T11:52:27;100625.38;;;20.82;51.10
41218;BME280;26950;50.960;7.138;2023-08-07T11:54:55;100621.31;;;20.54;50.63
41218;BME280;26950;50.960;7.138;2023-08-07T11:57:21;100621.03;;;21.35;49.62
41218;BME280;26950;50.960;7.138;2023-08-07T11:59:49;100617.47;;;20.74;49.98
41218;BME280;26950;50.960;7.138;2023-08-07T12:02:15;100621.56;;;20.98;48.82
41218;BME280;26950;50.960;7.138;2023-08-07T12:04:42;100613.94;;;21.34;47.77
41218;BME280;26950;50.960;7.138;2023-08-07T12:07:08;100626.63;;;20.54;50.77
41218;BME280;26950;50.960;7.138;2023-08-07T12:09:36;100614.59;;;20.90;48.23
41218;BME280;26950;50.960;7.138;2023-08-07T12:12:04;100616.16;;;20.35;48.74
41218;BME280;26950;50.960;7.138;2023-08-07T12:14:31;100623.88;;;20.63;48.85
41218;BME280;26950;50.960;7.138;2023-08-07T12:17:00;100617.69;;;21.18;46.20
41218;BME280;26950;50.960;7.138;2023-08-07T12:19:34;100607.34;;;20.99;46.37
41218;BME280;26950;50.960;7.138;2023-08-07T12:22:01;100617.22;;;20.91;47.59
41218;BME280;26950;50.960;7.138;2023-08-07T12:24:29;100612.19;;;21.30;47.57
41218;BME280;26950;50.960;7.138;2023-08-07T12:26:55;100618.09;;;21.52;46.54
41218;BME280;26950;50.960;7.138;2023-08-07T12:29:23;100613.41;;;21.65;46.22
41218;BME280;26950;50.960;7.138;2023-08-07T12:31:53;100611.16;;;21.40;45.13
41218;BME280;26950;50.960;7.138;2023-08-07T12:34:20;100610.22;;;21.44;44.72
41218;BME280;26950;50.960;7.138;2023-08-07T12:36:46;100618.00;;;20.98;44.90
41218;BME280;26950;50.960;7.138;2023-08-07T12:39:12;100615.19;;;21.64;44.02
41218;BME280;26950;50.960;7.138;2023-08-07T12:41:40;100622.44;;;21.00;44.32
41218;BME280;26950;50.960;7.138;2023-08-07T12:44:06;100622.56;;;21.51;43.41
41218;BME280;26950;50.960;7.138;2023-08-07T12:46:34;100606.25;;;21.67;41.38
41218;BME280;26950;50.960;7.138;2023-08-07T12:49:01;100607.34;;;21.55;40.00
41218;BME280;26950;50.960;7.138;2023-08-07T12:51:28;100616.22;;;21.57;41.70